aviador You're here:

KSTF Decoded Metar

in
Report Time2017-10-23 06:15:00
UTC Time2017-10-23 06:13:11
Flight Rules mvfr MVFR
WindCalm
Visibility9999 m
Phenomena:N/A
Clouds:Scattered 007 Hf
Broken 014 Hf
Overcast 037 Hf
Ceiling1,400 ft
Temp16°C
Dew Point16°C (100% RH)
QNH1015 hPa
Raw Report
KSTF 230615Z AUTO 00000KT 10SM SCT007 BKN014 OVC037 16/16 A2998
RMK AO2=

Extra information for KSTF:More info

Social comments